Pagrindinis puslapis
METAR-TAF:

METAR-TAF

Oro uostai :

Vientianas, Laosas

platuma: 17-57N, ilguma: 102-34E, Aukštis: 171 m

Dabartinis oras

Ataskaita buvo paskelbta 41 minutes, ne 11:30 UTC
Vėjas 2 kt iš Šiaurės Vakarų
Temperatūra 26°C
Drėgmė 74%
Slėgis 1012 hPa
Matomumas: 5000 m
Išsisklaidę debesys ne aukštis 10000 ft
rūkana

METAR: VLVT 151130Z 32002KT 5000 BR SCT100 26/21 Q1012 NOSIG

Laikas: 19:11 (12:11 UTC)

Prognozė

Ataskaita buvo paskelbta 1 valandą ir 11 minutes, ne 11:00 UTC
Prognozė galioja nuo 15 metu 12 UTC su 16 metu 12 UTC
Vėjas 6 kt iš Rytų/Pietryčių
Matomumas 10 km arba daugiau
Išsisklaidę debesys ne aukštis 2000 ft
Išsisklaidę debesys ne aukštis 5000 ft

TAF: VLVT 151100Z 1512/1612 12006KT 9999 SCT020 SCT050

Orai ataskaitas ir orų prognozės (METAR, TAF).

turimą stotys yra geltonos ir raudonos taškus žemėlapyje.

Perkelti pele per norėdami pamatyti stoties vardą.

Tada spustelėkite, norėdami matyti oro stebėjimo ir prognozės.

Norėdami pakeisti žemėlapį: spustelėkite ant žalios mygtukų su juodo kryžiaus žemyn,; žalią mygtuką su brūkšneliu, jei norite nutolinti; arba žalių rodyklių gretimoms žemėlapius.


METAR-TAF: